Time;durP1;ratioP1;P1;durP2;ratioP2;P2;SDS_P1;SDS_P2;PMS_P1;PMS_P2;Temp;Humidity;BMP_temperature;BMP_pressure;BME280_temperature;BME280_humidity;BME280_pressure;Samples;Min_cycle;Max_cycle;Signal;HPM_P1;HPM_P2
2022/05/28 00:01:39;;;;;;;6.28;2.00;;;;;;;14.04;87.17;96557.09;5043485;28;20336;-89
2022/05/28 00:04:06;;;;;;;2.25;1.63;;;;;;;13.99;87.20;96559.50;5042609;28;20224;-88
2022/05/28 00:06:35;;;;;;;2.42;1.60;;;;;;;14.18;87.36;96562.34;5042589;28;20205;-88
2022/05/28 00:09:03;;;;;;;6.93;1.52;;;;;;;14.16;86.95;96552.97;5043011;28;20212;-88
2022/05/28 00:11:33;;;;;;;3.63;1.85;;;;;;;14.15;87.20;96564.56;5043044;28;20217;-89
2022/05/28 00:13:59;;;;;;;3.75;2.03;;;;;;;14.02;87.48;96559.13;5043303;28;20215;-89
2022/05/28 00:16:26;;;;;;;2.85;1.40;;;;;;;13.93;87.50;96565.56;5043055;28;20440;-88
2022/05/28 00:18:53;;;;;;;4.28;1.88;;;;;;;13.98;86.53;96557.84;5043081;28;20685;-88
2022/05/28 00:21:21;;;;;;;4.13;1.90;;;;;;;14.04;87.14;96557.09;5043243;28;20234;-88
2022/05/28 00:23:49;;;;;;;3.47;1.70;;;;;;;14.10;86.84;96556.34;5043014;28;20221;-88
2022/05/28 00:26:16;;;;;;;2.28;1.70;;;;;;;13.89;87.07;96558.19;5043466;28;20205;-88
2022/05/28 00:28:43;;;;;;;2.60;1.73;;;;;;;13.70;87.04;96554.31;5043460;28;20559;-88
2022/05/28 00:31:10;;;;;;;2.60;1.67;;;;;;;13.80;87.12;96549.53;5042625;28;21219;-89
2022/05/28 00:33:36;;;;;;;4.03;1.88;;;;;;;13.92;87.97;96547.22;5042765;28;20201;-88
2022/05/28 00:36:05;;;;;;;3.00;1.92;;;;;;;13.86;88.60;96556.75;5042899;28;20212;-88
2022/05/28 00:38:32;;;;;;;2.95;1.88;;;;;;;13.76;89.26;96550.94;5042338;28;20708;-88
2022/05/28 00:41:00;;;;;;;4.70;2.00;;;;;;;13.85;90.28;96547.16;5043057;28;20251;-88
2022/05/28 00:43:28;;;;;;;2.33;1.65;;;;;;;13.77;90.51;96557.88;5042411;28;20225;-88
2022/05/28 00:46:01;;;;;;;3.28;1.85;;;;;;;13.98;90.04;96563.97;5042759;28;20779;-88
2022/05/28 00:48:32;;;;;;;3.53;1.85;;;;;;;13.98;90.46;96562.34;5042119;28;20211;-88
2022/05/28 00:51:05;;;;;;;5.35;2.20;;;;;;;14.10;90.36;96556.34;5042341;28;20316;-88
2022/05/28 00:53:32;;;;;;;3.40;1.95;;;;;;;14.09;90.23;96566.16;5045848;28;20205;-88
2022/05/28 00:56:02;;;;;;;2.95;1.95;;;;;;;14.22;90.43;96554.84;5045993;28;20213;-88
2022/05/28 00:58:29;;;;;;;2.45;1.73;;;;;;;14.18;89.90;96564.19;5045470;28;20369;-88
2022/05/28 01:00:56;;;;;;;2.80;1.80;;;;;;;14.36;89.42;96548.66;5046578;28;20291;-88
2022/05/28 01:03:29;;;;;;;4.50;1.85;;;;;;;14.33;91.47;96555.16;5045284;28;20236;-89
2022/05/28 01:06:09;;;;;;;4.07;1.80;;;;;;;14.47;90.06;96553.41;5045294;28;20332;-88
2022/05/28 01:08:39;;;;;;;3.80;1.55;;;;;;;14.25;91.61;96557.09;5045513;28;20197;-89
2022/05/28 01:11:16;;;;;;;5.55;1.80;;;;;;;14.21;91.52;96561.97;5045430;28;20221;-89
2022/05/28 01:13:51;;;;;;;3.97;1.88;;;;;;;14.36;90.15;96560.06;5045288;28;20196;-88
2022/05/28 01:16:23;;;;;;;2.88;1.70;;;;;;;14.32;93.40;96557.97;5045484;28;20290;-88
2022/05/28 01:18:55;;;;;;;3.63;1.73;;;;;;;14.33;92.88;96551.66;5045572;28;20572;-89
2022/05/28 01:21:31;;;;;;;5.75;1.83;;;;;;;14.41;93.19;96540.91;5045039;28;20601;-89
2022/05/28 01:24:07;;;;;;;2.65;1.80;;;;;;;14.53;92.17;96536.72;5044162;28;20233;-89
2022/05/28 01:26:44;;;;;;;3.28;1.70;;;;;;;14.44;91.84;96535.25;5045191;28;20208;-88
2022/05/28 01:29:13;;;;;;;7.43;2.00;;;;;;;14.48;90.87;96536.50;5045343;28;20204;-89
2022/05/28 01:31:40;;;;;;;4.03;2.17;;;;;;;14.09;92.66;96538.81;5045626;28;20239;-88
2022/05/28 01:34:09;;;;;;;2.78;1.85;;;;;;;14.40;90.68;96544.59;5044773;28;20737;-88
2022/05/28 01:36:37;;;;;;;5.25;1.80;;;;;;;14.46;91.28;96539.34;5045483;28;20201;-89
2022/05/28 01:39:06;;;;;;;3.13;1.85;;;;;;;14.21;93.73;96543.41;5045270;28;20208;-89
2022/05/28 01:41:35;;;;;;;3.47;2.00;;;;;;;14.25;93.98;96543.84;5044764;28;21210;-88
2022/05/28 01:44:08;;;;;;;3.55;1.98;;;;;;;14.37;93.56;96548.44;5044753;28;20220;-88
2022/05/28 01:46:35;;;;;;;3.53;2.05;;;;;;;14.08;92.58;96543.31;5044891;28;20197;-88
2022/05/28 01:49:02;;;;;;;3.35;1.85;;;;;;;14.05;91.75;96537.53;5045146;28;20213;-88
2022/05/28 01:51:34;;;;;;;2.70;1.75;;;;;;;14.12;92.12;96549.06;5044778;28;20217;-88
2022/05/28 01:54:11;;;;;;;5.53;2.30;;;;;;;14.03;92.93;96539.56;5044972;28;20209;-88
2022/05/28 01:56:42;;;;;;;4.00;2.22;;;;;;;14.14;91.32;96536.41;5044697;28;20291;-88
2022/05/28 01:59:10;;;;;;;5.22;2.67;;;;;;;13.98;90.68;96543.81;5045150;28;20205;-88
2022/05/28 02:01:37;;;;;;;14.55;2.60;;;;;;;13.96;91.85;96546.63;5044935;28;20217;-89
2022/05/28 02:04:05;;;;;;;4.00;2.40;;;;;;;13.83;90.09;96554.44;5044468;28;20657;-88
2022/05/28 02:06:31;;;;;;;4.93;2.88;;;;;;;13.71;91.50;96553.31;5045899;28;20733;-88
2022/05/28 02:08:58;;;;;;;5.75;2.70;;;;;;;13.56;94.06;96554.38;5048204;28;20698;-88
2022/05/28 02:11:27;;;;;;;8.40;3.20;;;;;;;13.42;96.08;96560.53;5048027;28;20221;-87
2022/05/28 02:14:10;;;;;;;6.78;2.60;;;;;;;13.51;96.65;96562.88;5047110;28;20583;-86
2022/05/28 02:16:50;;;;;;;7.90;2.88;;;;;;;13.37;98.21;96562.09;5051571;28;20197;-87
2022/05/28 02:19:26;;;;;;;5.88;3.10;;;;;;;13.27;100.00;96566.88;5050731;28;20208;-86
2022/05/28 02:22:02;;;;;;;7.43;3.23;;;;;;;13.37;99.30;96556.81;5049589;28;20235;-86
2022/05/28 02:24:35;;;;;;;7.65;3.35;;;;;;;13.38;99.66;96559.28;5049546;28;20236;-86
2022/05/28 02:27:06;;;;;;;6.57;3.20;;;;;;;13.53;99.82;96557.38;5049273;28;20221;-86
2022/05/28 02:29:34;;;;;;;8.57;3.57;;;;;;;13.52;98.97;96561.06;5047415;28;20212;-86
2022/05/28 02:32:13;;;;;;;10.17;3.10;;;;;;;13.74;98.09;96555.56;5047669;28;20706;-86
2022/05/28 02:34:40;;;;;;;8.03;3.27;;;;;;;13.54;98.08;96553.72;5048091;28;20204;-86
2022/05/28 02:37:07;;;;;;;6.75;3.53;;;;;;;13.75;99.69;96551.13;5046927;28;20221;-87
2022/05/28 02:39:33;;;;;;;9.50;3.70;;;;;;;13.84;99.72;96550.78;5048361;28;20218;-86
2022/05/28 02:42:00;;;;;;;4.32;2.90;;;;;;;13.76;100.00;96548.28;5047140;28;20227;-86
2022/05/28 02:44:28;;;;;;;8.73;3.53;;;;;;;13.83;100.00;96538.56;5047053;28;20538;-86
2022/05/28 02:46:54;;;;;;;5.90;3.60;;;;;;;13.93;100.00;96535.59;5046670;28;20231;-86
2022/05/28 02:49:23;;;;;;;6.90;3.50;;;;;;;13.94;100.00;96532.75;5045703;28;20205;-86
2022/05/28 02:51:50;;;;;;;7.00;3.22;;;;;;;13.90;100.00;96528.84;5045214;28;20282;-86
2022/05/28 02:54:16;;;;;;;7.93;4.18;;;;;;;13.94;100.00;96524.81;5044741;28;20216;-87
2022/05/28 02:56:43;;;;;;;7.75;3.60;;;;;;;13.77;100.00;96523.44;5044417;28;20674;-86
2022/05/28 02:59:09;;;;;;;9.32;3.72;;;;;;;13.78;100.00;96530.34;5044445;28;20201;-87
2022/05/28 03:01:36;;;;;;;5.97;3.60;;;;;;;13.83;100.00;96527.16;5044625;28;20585;-87
2022/05/28 03:04:04;;;;;;;11.57;3.80;;;;;;;13.88;100.00;96525.56;5044565;28;20225;-87
2022/05/28 03:06:32;;;;;;;8.05;3.58;;;;;;;13.92;100.00;96523.38;5044692;28;20197;-86
2022/05/28 03:08:59;;;;;;;6.38;3.58;;;;;;;13.75;100.00;96520.16;5044413;28;20612;-87
2022/05/28 03:11:26;;;;;;;11.98;3.70;;;;;;;13.85;100.00;96528.59;5044251;28;20232;-86
2022/05/28 03:13:52;;;;;;;6.32;3.70;;;;;;;13.82;100.00;96525.50;5043291;28;20205;-87
2022/05/28 03:16:19;;;;;;;7.95;3.40;;;;;;;13.78;100.00;96524.25;5042907;28;20205;-87
2022/05/28 03:18:46;;;;;;;6.35;3.05;;;;;;;13.71;98.62;96518.88;5043501;28;20586;-87
2022/05/28 03:21:13;;;;;;;7.18;3.55;;;;;;;13.50;99.05;96537.44;5043683;28;20229;-88
2022/05/28 03:23:41;;;;;;;9.45;3.60;;;;;;;13.37;98.68;96527.69;5042989;28;20209;-88
2022/05/28 03:26:12;;;;;;;5.88;3.47;;;;;;;13.46;99.20;96522.91;5043526;28;20225;-87
2022/05/28 03:28:39;;;;;;;10.23;3.45;;;;;;;13.42;98.63;96531.41;5042918;28;20235;-87
2022/05/28 03:31:05;;;;;;;10.07;3.58;;;;;;;13.30;97.13;96526.78;5042678;28;20225;-87
2022/05/28 03:33:32;;;;;;;5.82;3.15;;;;;;;13.22;97.76;96533.00;5043030;28;20426;-87
2022/05/28 03:35:58;;;;;;;7.03;3.22;;;;;;;13.17;98.22;96534.56;5043563;28;20208;-87
2022/05/28 03:38:25;;;;;;;7.43;3.73;;;;;;;13.23;98.21;96539.13;5042949;28;20205;-87
2022/05/28 03:40:53;;;;;;;9.57;3.13;;;;;;;13.33;98.83;96544.94;5042097;28;20473;-87
2022/05/28 03:43:20;;;;;;;7.93;3.33;;;;;;;13.34;99.71;96549.22;5042907;28;20212;-87
2022/05/28 03:45:46;;;;;;;8.70;3.80;;;;;;;13.10;98.00;96545.09;5042849;28;20229;-87
2022/05/28 03:48:13;;;;;;;10.63;4.05;;;;;;;13.03;96.82;96538.88;5042459;28;20212;-87
2022/05/28 03:50:39;;;;;;;5.83;3.33;;;;;;;13.30;96.38;96540.00;5042640;28;20439;-87
2022/05/28 03:53:06;;;;;;;7.95;2.95;;;;;;;13.45;98.32;96539.81;5043000;28;20205;-87
2022/05/28 03:55:32;;;;;;;11.23;3.63;;;;;;;13.41;100.00;96553.59;5042117;28;20673;-87
2022/05/28 03:58:00;;;;;;;10.87;3.50;;;;;;;13.58;96.58;96542.59;5043021;28;20209;-87
2022/05/28 04:00:27;;;;;;;7.60;3.10;;;;;;;13.43;96.19;96551.59;5042672;28;20205;-87
2022/05/28 04:02:53;;;;;;;9.77;3.50;;;;;;;13.46;99.51;96554.66;5042453;28;20228;-86
2022/05/28 04:05:22;;;;;;;7.95;3.30;;;;;;;13.37;96.26;96548.88;5042912;28;20221;-87
2022/05/28 04:07:48;;;;;;;8.17;3.43;;;;;;;13.31;96.22;96557.53;5042773;28;20209;-87
2022/05/28 04:10:15;;;;;;;9.73;3.20;;;;;;;13.32;95.96;96553.91;5043447;28;20734;-87
2022/05/28 04:12:42;;;;;;;12.32;2.97;;;;;;;13.07;96.36;96555.19;5042441;28;20480;-87
2022/05/28 04:15:11;;;;;;;7.13;3.10;;;;;;;12.98;95.91;96561.59;5042894;28;20400;-87
2022/05/28 04:17:38;;;;;;;6.10;3.37;;;;;;;12.83;97.36;96558.94;5042728;28;20228;-87
2022/05/28 04:20:07;;;;;;;13.03;3.37;;;;;;;12.99;97.53;96571.19;5043227;28;20548;-87
2022/05/28 04:22:34;;;;;;;10.87;3.20;;;;;;;12.93;96.93;96574.56;5042822;28;20225;-87
2022/05/28 04:25:00;;;;;;;8.60;3.47;;;;;;;12.99;95.86;96573.81;5042968;28;20225;-88
2022/05/28 04:27:27;;;;;;;7.87;3.23;;;;;;;13.04;95.73;96568.81;5046201;28;20217;-87
2022/05/28 04:29:53;;;;;;;10.43;3.47;;;;;;;13.13;95.44;96575.66;5047617;28;20208;-88
2022/05/28 04:32:21;;;;;;;8.07;3.40;;;;;;;13.33;94.65;96580.19;5046879;28;20232;-88
2022/05/28 04:34:47;;;;;;;6.88;2.72;;;;;;;13.38;94.82;96583.91;5046448;28;20209;-87
2022/05/28 04:37:14;;;;;;;8.73;3.50;;;;;;;13.21;94.46;96578.19;5047377;28;20201;-87
2022/05/28 04:39:40;;;;;;;8.67;3.03;;;;;;;13.23;93.47;96587.56;5046993;28;20205;-87
2022/05/28 04:42:07;;;;;;;6.90;2.75;;;;;;;13.20;94.53;96582.66;5046455;28;20232;-88
2022/05/28 04:44:34;;;;;;;7.53;2.90;;;;;;;13.02;93.19;96589.31;5046588;28;20635;-87
2022/05/28 04:47:00;;;;;;;10.13;2.63;;;;;;;13.16;92.77;96588.50;5046288;28;20205;-86
2022/05/28 04:49:28;;;;;;;9.33;3.00;;;;;;;13.05;93.32;96591.63;5045881;28;20202;-88
2022/05/28 04:51:55;;;;;;;11.38;2.72;;;;;;;12.91;91.92;96589.81;5045860;28;20232;-86
2022/05/28 04:54:21;;;;;;;5.83;2.53;;;;;;;13.21;93.13;96596.72;5047034;28;20201;-87
2022/05/28 04:56:48;;;;;;;9.67;2.83;;;;;;;13.30;92.76;96596.44;5046706;28;20213;-87
2022/05/28 04:59:14;;;;;;;7.55;2.47;;;;;;;13.39;93.30;96593.50;5046369;28;20209;-87
2022/05/28 05:01:41;;;;;;;10.85;2.90;;;;;;;13.50;92.13;96593.03;5046513;28;20489;-87
2022/05/28 05:04:07;;;;;;;9.65;2.83;;;;;;;13.62;91.35;96599.47;5046454;28;20205;-87
2022/05/28 05:06:35;;;;;;;10.35;3.22;;;;;;;13.70;89.53;96598.53;5047653;28;20581;-87
2022/05/28 05:09:02;;;;;;;9.85;2.88;;;;;;;13.91;88.20;96591.41;5046952;28;20205;-87
2022/05/28 05:11:28;;;;;;;10.50;2.22;;;;;;;14.09;86.72;96597.13;5045944;28;20231;-87
2022/05/28 05:13:55;;;;;;;6.00;2.10;;;;;;;13.73;87.23;96598.16;5046038;28;20209;-87
2022/05/28 05:16:21;;;;;;;7.15;2.45;;;;;;;13.59;84.88;96610.44;5045843;28;20201;-87
2022/05/28 05:18:48;;;;;;;4.47;2.25;;;;;;;13.31;87.28;96616.59;5045844;28;20212;-87
2022/05/28 05:21:15;;;;;;;7.57;2.20;;;;;;;13.31;87.61;96615.78;5045042;28;20229;-87
2022/05/28 05:23:43;;;;;;;6.13;2.40;;;;;;;13.30;85.13;96619.41;5044526;28;20513;-87
2022/05/28 05:26:11;;;;;;;6.40;2.53;;;;;;;13.27;85.83;96619.78;5045845;28;20228;-87
2022/05/28 05:28:37;;;;;;;7.77;2.10;;;;;;;13.00;82.25;96612.50;5046305;28;20760;-87
2022/05/28 05:31:04;;;;;;;4.93;1.98;;;;;;;12.95;80.94;96617.53;5046519;28;20225;-87
2022/05/28 05:33:31;;;;;;;6.00;2.05;;;;;;;12.80;81.06;96628.06;5046895;28;20209;-87
2022/05/28 05:35:57;;;;;;;3.10;1.97;;;;;;;12.48;78.99;96621.44;5050027;28;20198;-87
2022/05/28 05:38:24;;;;;;;5.10;2.00;;;;;;;12.56;77.72;96624.00;5048145;28;20209;-87
2022/05/28 05:40:53;;;;;;;6.93;2.70;;;;;;;13.13;77.48;96624.06;5046734;28;20221;-87
2022/05/28 05:43:20;;;;;;;7.87;2.27;;;;;;;13.09;80.02;96627.28;5047101;28;20197;-88
2022/05/28 05:45:51;;;;;;;5.13;2.25;;;;;;;13.07;77.91;96624.00;5046874;28;20271;-88
2022/05/28 05:48:18;;;;;;;5.53;2.30;;;;;;;13.27;77.32;96630.38;5046422;28;20209;-88
2022/05/28 05:50:44;;;;;;;12.13;2.20;;;;;;;13.36;76.13;96630.09;5046185;28;20204;-87
2022/05/28 05:53:11;;;;;;;5.05;2.08;;;;;;;13.36;76.60;96637.22;5047526;28;20287;-88
2022/05/28 05:55:37;;;;;;;10.27;2.10;;;;;;;13.30;75.34;96630.84;5046767;28;20207;-87
2022/05/28 05:58:06;;;;;;;7.95;2.00;;;;;;;13.28;75.57;96632.03;5049128;28;20211;-87
2022/05/28 06:00:32;;;;;;;7.32;2.00;;;;;;;13.43;74.33;96626.53;5047717;28;20228;-87
2022/05/28 06:02:59;;;;;;;5.90;2.20;;;;;;;13.55;77.55;96625.03;5045771;28;20209;-87
2022/05/28 06:05:25;;;;;;;6.88;2.08;;;;;;;13.60;75.65;96624.50;5048525;28;20225;-88
2022/05/28 06:07:52;;;;;;;7.57;1.83;;;;;;;13.24;73.88;96617.50;5048018;28;20553;-87
2022/05/28 06:10:19;;;;;;;5.30;2.05;;;;;;;13.49;74.36;96619.66;5047352;28;20212;-87
2022/05/28 06:12:45;;;;;;;5.18;2.10;;;;;;;13.69;75.05;96632.13;5046111;28;20229;-88
2022/05/28 06:15:13;;;;;;;9.57;2.00;;;;;;;13.79;72.98;96629.19;5046560;28;20684;-88
2022/05/28 06:17:40;;;;;;;6.07;1.80;;;;;;;13.78;72.64;96630.19;5045010;28;20203;-87
2022/05/28 06:20:10;;;;;;;10.13;2.35;;;;;;;13.94;74.90;96630.78;5044599;28;20558;-88
2022/05/28 06:22:37;;;;;;;7.40;2.17;;;;;;;14.00;71.28;96624.72;5044374;28;20247;-88
2022/05/28 06:25:04;;;;;;;11.98;2.17;;;;;;;13.90;76.81;96626.03;5044301;28;20225;-88
2022/05/28 06:27:32;;;;;;;5.30;1.77;;;;;;;14.22;74.98;96619.28;5043660;28;20814;-87
2022/05/28 06:29:58;;;;;;;7.45;2.08;;;;;;;14.01;72.16;96615.75;5045650;28;20197;-88
2022/05/28 06:32:26;;;;;;;6.60;2.10;;;;;;;14.05;73.85;96611.72;5045025;28;20236;-88
2022/05/28 06:34:54;;;;;;;8.45;1.85;;;;;;;14.17;70.50;96623.50;5043605;28;20209;-87
2022/05/28 06:37:21;;;;;;;4.75;2.20;;;;;;;14.02;70.33;96617.41;5043821;28;20209;-88
2022/05/28 06:39:47;;;;;;;8.90;2.15;;;;;;;14.00;68.14;96611.47;5044347;28;20207;-88
2022/05/28 06:42:14;;;;;;;6.82;1.85;;;;;;;13.77;70.74;96625.91;5044664;28;20442;-87
2022/05/28 06:44:41;;;;;;;6.60;2.00;;;;;;;13.88;72.78;96626.22;5044641;28;20212;-87
2022/05/28 06:47:07;;;;;;;7.20;2.10;;;;;;;13.71;66.77;96622.19;5044334;28;20232;-87
2022/05/28 06:49:35;;;;;;;6.45;1.48;;;;;;;13.72;68.02;96628.28;5043352;28;20619;-86
2022/05/28 06:52:02;;;;;;;5.68;1.80;;;;;;;13.38;69.70;96623.59;5044003;28;20232;-87
2022/05/28 06:54:29;;;;;;;4.80;2.10;;;;;;;13.32;68.53;96625.38;5045929;28;20198;-87
2022/05/28 06:56:55;;;;;;;7.32;2.20;;;;;;;13.26;70.81;96628.72;5047855;28;20566;-86
2022/05/28 06:59:22;;;;;;;6.50;1.57;;;;;;;13.31;71.11;96626.38;5046842;28;20216;-87
2022/05/28 07:01:48;;;;;;;5.23;1.63;;;;;;;13.18;69.51;96626.19;5047270;28;20229;-86
2022/05/28 07:04:15;;;;;;;7.13;2.10;;;;;;;13.34;68.68;96631.28;5046309;28;20224;-87
2022/05/28 07:06:43;;;;;;;4.82;1.48;;;;;;;13.53;68.16;96621.75;5043214;28;20225;-87
2022/05/28 07:09:09;;;;;;;1.57;1.23;;;;;;;13.34;68.40;96621.53;5044910;28;20286;-87
2022/05/28 07:11:36;;;;;;;9.60;1.90;;;;;;;13.65;66.51;96622.91;5046487;28;20606;-87
2022/05/28 07:14:02;;;;;;;2.30;0.90;;;;;;;13.77;62.00;96623.25;5046323;28;20201;-88
2022/05/28 07:16:29;;;;;;;5.45;1.17;;;;;;;14.14;63.88;96621.22;5043527;28;20372;-88
2022/05/28 07:18:55;;;;;;;3.63;1.55;;;;;;;14.05;60.48;96622.31;5043152;28;20209;-88
2022/05/28 07:21:22;;;;;;;7.72;0.93;;;;;;;13.81;58.31;96609.47;5043922;28;20726;-88
2022/05/28 07:23:50;;;;;;;1.33;0.85;;;;;;;13.59;58.82;96622.84;5042669;28;20354;-87
2022/05/28 07:26:18;;;;;;;6.68;1.02;;;;;;;13.58;59.49;96622.03;5043678;28;20661;-88
2022/05/28 07:28:45;;;;;;;2.05;1.00;;;;;;;13.58;60.05;96618.53;5043927;28;20583;-88
2022/05/28 07:31:14;;;;;;;3.03;0.90;;;;;;;13.93;59.00;96618.53;5043455;28;20225;-88
2022/05/28 07:33:44;;;;;;;6.15;1.17;;;;;;;14.25;59.41;96612.78;5043975;28;20197;-88
2022/05/28 07:36:12;;;;;;;3.90;0.90;;;;;;;14.33;59.28;96610.81;5044336;28;20598;-88
2022/05/28 07:38:41;;;;;;;4.60;0.63;;;;;;;14.19;56.63;96616.19;5044257;28;20403;-86
2022/05/28 07:41:12;;;;;;;2.13;0.85;;;;;;;14.40;61.08;96616.19;5043548;28;20868;-88
2022/05/28 07:43:39;;;;;;;2.88;1.10;;;;;;;14.58;58.45;96611.22;5043920;28;20205;-88
2022/05/28 07:46:12;;;;;;;3.35;0.90;;;;;;;14.74;57.72;96614.41;5043382;28;20224;-87
2022/05/28 07:48:39;;;;;;;1.55;0.90;;;;;;;14.91;62.12;96616.56;5044039;28;20208;-87
2022/05/28 07:51:05;;;;;;;3.70;0.80;;;;;;;14.92;56.42;96618.22;5043420;28;20256;-88
2022/05/28 07:53:32;;;;;;;2.95;1.00;;;;;;;14.95;58.15;96617.00;5046085;28;20203;-87
2022/05/28 07:56:00;;;;;;;3.35;1.10;;;;;;;15.08;58.56;96617.88;5046028;28;20573;-88
2022/05/28 07:58:28;;;;;;;7.50;1.10;;;;;;;15.18;59.43;96612.25;5043095;28;20684;-87
2022/05/28 08:00:55;;;;;;;4.53;1.05;;;;;;;14.64;59.20;96603.31;5042402;28;20231;-87
2022/05/28 08:03:22;;;;;;;5.28;1.23;;;;;;;14.84;58.67;96607.75;5042852;28;20201;-87
2022/05/28 08:05:51;;;;;;;1.77;0.90;;;;;;;14.75;57.40;96606.25;5043512;28;20283;-88
2022/05/28 08:08:19;;;;;;;4.13;1.00;;;;;;;14.89;54.85;96607.16;5043390;28;20585;-88
2022/05/28 08:10:45;;;;;;;4.70;0.90;;;;;;;14.79;59.00;96614.63;5043893;28;20203;-88
2022/05/28 08:13:14;;;;;;;2.42;0.80;;;;;;;15.04;57.47;96611.34;5043020;28;20216;-87
2022/05/28 08:15:45;;;;;;;2.67;0.82;;;;;;;15.11;57.66;96611.38;5044276;28;20209;-88
2022/05/28 08:18:13;;;;;;;2.40;0.80;;;;;;;15.03;55.20;96607.06;5044268;28;20208;-89
2022/05/28 08:23:23;;;;;;;1.15;0.65;;;;;;;15.32;56.32;96606.81;5043286;28;20712;-88
2022/05/28 08:25:51;;;;;;;3.05;0.98;;;;;;;15.39;56.71;96615.66;5045913;28;20236;-88
2022/05/28 08:28:19;;;;;;;0.98;0.55;;;;;;;15.51;55.48;96620.19;5045716;28;20235;-88
2022/05/28 08:30:47;;;;;;;1.85;0.80;;;;;;;15.60;53.81;96607.56;5042950;28;20208;-88
2022/05/28 08:33:15;;;;;;;2.10;0.68;;;;;;;15.63;57.99;96608.00;5042582;28;20596;-87
2022/05/28 08:35:43;;;;;;;3.03;0.60;;;;;;;15.83;56.86;96616.03;5044485;28;20293;-87
2022/05/28 08:38:12;;;;;;;1.55;0.65;;;;;;;15.55;53.86;96607.34;5046247;28;20197;-86
2022/05/28 08:40:44;;;;;;;4.78;0.80;;;;;;;15.87;52.74;96610.09;5043227;28;20211;-86
2022/05/28 08:43:13;;;;;;;4.70;0.82;;;;;;;15.75;53.79;96613.56;5044098;28;20201;-88
2022/05/28 08:45:39;;;;;;;3.22;0.75;;;;;;;15.78;53.93;96611.31;5043485;28;20205;-88
2022/05/28 08:48:07;;;;;;;2.20;0.90;;;;;;;15.99;51.95;96609.31;5043663;28;20197;-88
2022/05/28 08:50:45;;;;;;;3.30;0.70;;;;;;;15.88;51.21;96607.28;5044777;28;20219;-88
2022/05/28 08:53:15;;;;;;;1.67;0.80;;;;;;;16.21;55.14;96610.78;5042978;28;20200;-88
2022/05/28 08:55:46;;;;;;;3.40;0.70;;;;;;;16.62;51.71;96595.50;5044452;28;20952;-88
2022/05/28 08:58:17;;;;;;;2.90;1.15;;;;;;;16.73;55.90;96594.91;5043947;28;20671;-87
2022/05/28 09:00:47;;;;;;;2.35;0.70;;;;;;;16.90;51.40;96596.91;5043407;28;20209;-89
2022/05/28 09:03:20;;;;;;;0.93;0.68;;;;;;;16.40;51.50;96596.72;5046192;28;20292;-87
2022/05/28 09:05:51;;;;;;;1.70;0.80;;;;;;;16.57;50.58;96596.13;5044204;28;20197;-88
2022/05/28 09:08:28;;;;;;;3.92;0.70;;;;;;;16.43;51.13;96596.31;5045299;28;20542;-87
2022/05/28 09:10:57;;;;;;;1.00;0.60;;;;;;;16.42;53.18;96594.69;5046362;28;20225;-88
2022/05/28 09:13:28;;;;;;;3.80;0.85;;;;;;;16.78;50.18;96585.25;5044993;28;20376;-87
2022/05/28 09:15:58;;;;;;;2.95;0.60;;;;;;;16.68;47.65;96592.03;5048168;28;20211;-86
2022/05/28 09:18:31;;;;;;;1.38;0.65;;;;;;;16.55;51.54;96597.38;5049332;28;20209;-87
2022/05/28 09:20:58;;;;;;;1.45;0.80;;;;;;;16.54;50.60;96591.19;5049961;28;20225;-86
2022/05/28 09:23:25;;;;;;;1.83;0.57;;;;;;;16.04;50.70;96584.81;5046439;28;20625;-85
2022/05/28 09:25:55;;;;;;;1.75;0.40;;;;;;;16.09;47.29;96590.34;5046342;28;20691;-86
2022/05/28 09:28:36;;;;;;;1.52;0.60;;;;;;;16.36;49.40;96584.06;5046980;28;20217;-88
2022/05/28 09:31:12;;;;;;;2.15;0.63;;;;;;;16.34;48.17;96586.09;5045412;28;20224;-88
2022/05/28 09:34:01;;;;;;;3.28;0.55;;;;;;;16.61;47.70;96588.53;5045786;28;20216;-86
2022/05/28 09:36:37;;;;;;;2.83;0.50;;;;;;;16.35;47.49;96580.56;5047124;28;20710;-89
2022/05/28 09:39:15;;;;;;;1.60;0.57;;;;;;;16.27;47.24;96586.09;5046556;28;20200;-86
2022/05/28 09:41:54;;;;;;;1.73;0.50;;;;;;;16.96;49.00;96576.66;5046021;28;20566;-86
2022/05/28 09:44:34;;;;;;;4.15;0.70;;;;;;;17.12;48.45;96571.69;5045207;28;20212;-87
2022/05/28 09:47:08;;;;;;;1.75;0.70;;;;;;;17.37;51.99;96570.78;5047353;28;20235;-87
2022/05/28 09:49:46;;;;;;;1.15;0.50;;;;;;;17.27;49.85;96573.13;5048243;28;20243;-86
2022/05/28 09:52:13;;;;;;;1.67;0.40;;;;;;;16.99;46.65;96578.88;5045039;28;20229;-86
2022/05/28 09:54:39;;;;;;;3.25;0.60;;;;;;;17.21;48.68;96578.44;5046867;28;20736;-88
2022/05/28 09:57:10;;;;;;;4.70;0.85;;;;;;;17.27;49.46;96572.28;5047942;28;20205;-87
2022/05/28 09:59:49;;;;;;;2.10;0.55;;;;;;;17.18;46.15;96565.50;5045730;28;20275;-88
2022/05/28 10:02:20;;;;;;;3.08;0.77;;;;;;;17.00;51.88;96568.00;5046993;28;20319;-87
2022/05/28 10:04:51;;;;;;;1.88;0.75;;;;;;;17.47;50.74;96565.84;5047026;28;20205;-88
2022/05/28 10:07:30;;;;;;;2.22;0.60;;;;;;;18.30;46.04;96566.44;5047847;28;20221;-87
2022/05/28 10:09:56;;;;;;;5.55;0.63;;;;;;;17.88;43.90;96558.25;5046742;28;20248;-86
2022/05/28 10:12:25;;;;;;;2.10;0.70;;;;;;;17.59;47.62;96558.00;5045469;28;20236;-88
2022/05/28 10:15:03;;;;;;;6.22;0.80;;;;;;;17.29;47.99;96552.41;5047354;28;20205;-88
2022/05/28 10:17:31;;;;;;;0.93;0.45;;;;;;;17.45;48.31;96561.75;5046475;28;20208;-87
2022/05/28 10:20:01;;;;;;;4.28;0.75;;;;;;;17.82;45.41;96553.81;5049273;28;20209;-88
2022/05/28 10:22:30;;;;;;;3.97;0.90;;;;;;;17.91;45.94;96547.19;5047169;28;20224;-89
2022/05/28 10:25:00;;;;;;;1.75;0.50;;;;;;;17.91;47.54;96542.66;5048758;28;20211;-90
2022/05/28 10:27:35;;;;;;;4.00;0.57;;;;;;;17.73;46.64;96547.91;5047262;28;20221;-88
2022/05/28 10:30:06;;;;;;;3.85;0.80;;;;;;;17.88;45.93;96547.59;5045471;28;20213;-86
2022/05/28 10:32:36;;;;;;;2.55;0.65;;;;;;;18.09;45.52;96549.94;5043583;28;20461;-87
2022/05/28 10:35:11;;;;;;;2.55;0.57;;;;;;;18.33;45.72;96553.47;5044090;28;20201;-89
2022/05/28 10:37:38;;;;;;;3.55;0.60;;;;;;;18.40;45.09;96548.88;5044564;28;20207;-87
2022/05/28 10:40:10;;;;;;;4.10;0.70;;;;;;;18.91;48.17;96551.31;5046241;28;20205;-88
2022/05/28 10:42:37;;;;;;;2.72;0.50;;;;;;;18.59;44.71;96558.59;5044901;28;20221;-88
2022/05/28 10:45:06;;;;;;;2.80;0.60;;;;;;;18.38;46.41;96553.66;5044873;28;20570;-87
2022/05/28 10:48:00;;;;;;;2.97;0.50;;;;;;;17.92;43.54;96554.13;5044943;28;20235;-87
2022/05/28 10:50:37;;;;;;;3.38;0.77;;;;;;;17.88;45.28;96553.78;5043932;28;20216;-88
2022/05/28 10:53:14;;;;;;;1.10;0.50;;;;;;;17.87;46.17;96545.97;5044795;28;20205;-89
2022/05/28 10:55:51;;;;;;;1.65;0.63;;;;;;;18.19;45.19;96545.78;5047449;28;20246;-89
2022/05/28 10:58:31;;;;;;;2.53;0.60;;;;;;;18.21;46.28;96532.22;5047684;28;20207;-88
2022/05/28 11:01:02;;;;;;;5.00;1.08;;;;;;;18.15;46.87;96541.06;5044304;28;20335;-89
2022/05/28 11:03:53;;;;;;;1.88;0.70;;;;;;;18.26;45.01;96530.53;5043192;28;20249;-88
2022/05/28 11:06:46;;;;;;;1.50;0.60;;;;;;;18.44;45.51;96536.78;5044483;28;20205;-88
2022/05/28 11:09:20;;;;;;;2.33;0.68;;;;;;;18.72;45.67;96534.44;5046405;28;20218;-88
2022/05/28 11:12:00;;;;;;;1.70;0.73;;;;;;;18.41;46.52;96534.53;5047734;28;20225;-89
2022/05/28 11:14:57;;;;;;;2.42;0.80;;;;;;;18.63;50.60;96532.28;5047040;28;20247;-89
2022/05/28 11:17:42;;;;;;;1.50;0.70;;;;;;;18.25;47.79;96528.09;5045639;28;20201;-88
2022/05/28 11:20:22;;;;;;;0.85;0.52;;;;;;;18.43;47.47;96523.63;5046724;28;20208;-89
2022/05/28 11:23:08;;;;;;;2.13;0.80;;;;;;;18.42;46.09;96516.69;5048467;28;20221;-89
2022/05/28 11:25:49;;;;;;;3.28;0.80;;;;;;;18.51;46.38;96521.50;5043532;28;20200;-89
2022/05/28 11:28:53;;;;;;;3.13;0.73;;;;;;;17.97;42.86;96517.81;5043326;28;20702;-88
2022/05/28 11:31:25;;;;;;;2.40;0.75;;;;;;;17.89;44.73;96509.25;5042710;28;20691;-88
2022/05/28 11:33:54;;;;;;;6.03;0.70;;;;;;;18.04;42.76;96509.78;5042790;28;20220;-87
2022/05/28 11:36:26;;;;;;;4.65;1.00;;;;;;;18.36;44.64;96514.88;5042985;28;20205;-88
2022/05/28 11:38:59;;;;;;;3.78;0.80;;;;;;;18.68;44.45;96503.06;5043207;28;20216;-88
2022/05/28 11:41:32;;;;;;;1.95;0.80;;;;;;;18.21;44.21;96505.56;5042941;28;20224;-88
2022/05/28 11:44:06;;;;;;;5.00;1.13;;;;;;;18.02;44.42;96506.50;5042754;28;20209;-87
2022/05/28 11:46:41;;;;;;;1.23;0.70;;;;;;;18.34;47.62;96499.09;5043331;28;20209;-89